Time;durP1;ratioP1;P1;durP2;ratioP2;P2;SDS_P1;SDS_P2;PMS_P1;PMS_P2;Temp;Humidity;BMP_temperature;BMP_pressure;BME280_temperature;BME280_humidity;BME280_pressure;Samples;Min_cycle;Max_cycle;Signal;HPM_P1;HPM_P2
2023/03/29 00:00:08;;;;;;;4.68;2.50;;;;;;;6.98;40.44;101383.97;5002853;28;20042;-74
2023/03/29 00:02:38;;;;;;;5.40;2.33;;;;;;;6.95;40.77;101385.03;5003435;28;20050;-74
2023/03/29 00:05:11;;;;;;;3.95;2.35;;;;;;;6.97;40.87;101380.38;4992521;28;20046;-73
2023/03/29 00:07:39;;;;;;;4.28;2.33;;;;;;;6.93;40.68;101381.56;4995122;28;20149;-73
2023/03/29 00:10:09;;;;;;;3.40;2.10;;;;;;;6.95;40.57;101370.53;4995998;28;20050;-74
2023/03/29 00:12:38;;;;;;;4.47;2.35;;;;;;;6.93;40.79;101364.34;4998764;28;20061;-74
2023/03/29 00:15:08;;;;;;;5.05;2.75;;;;;;;6.92;40.98;101368.03;4995599;28;20053;-74
2023/03/29 00:17:36;;;;;;;4.28;2.28;;;;;;;6.88;40.71;101370.06;5002261;28;20074;-74
2023/03/29 00:20:07;;;;;;;4.03;2.15;;;;;;;6.88;40.68;101363.75;5002926;28;20053;-75
2023/03/29 00:22:38;;;;;;;4.68;2.33;;;;;;;6.89;41.09;101366.38;4982017;28;20061;-74
2023/03/29 00:25:07;;;;;;;4.22;2.58;;;;;;;6.85;40.67;101353.09;4976730;28;20396;-74
2023/03/29 00:27:35;;;;;;;4.30;2.50;;;;;;;6.83;40.54;101347.75;4998311;28;20038;-74
2023/03/29 00:30:04;;;;;;;4.15;2.10;;;;;;;6.81;41.28;101356.00;4996597;28;20054;-74
2023/03/29 00:32:32;;;;;;;4.90;2.28;;;;;;;6.81;40.83;101350.56;4999678;28;20042;-74
2023/03/29 00:35:01;;;;;;;4.95;2.25;;;;;;;6.80;41.12;101348.78;4999666;28;20050;-74
2023/03/29 00:37:29;;;;;;;5.05;2.40;;;;;;;6.80;40.80;101340.63;4991845;28;20560;-74
2023/03/29 00:39:59;;;;;;;4.70;2.30;;;;;;;6.80;41.44;101342.47;4992850;28;20065;-75
2023/03/29 00:42:26;;;;;;;4.68;2.70;;;;;;;6.78;41.17;101341.69;4999703;28;20050;-74
2023/03/29 00:45:02;;;;;;;4.45;2.15;;;;;;;6.79;41.49;101344.31;5000988;28;20100;-74
2023/03/29 00:47:34;;;;;;;5.70;2.20;;;;;;;6.78;41.00;101348.00;4995932;28;20061;-74
2023/03/29 00:50:08;;;;;;;3.10;2.08;;;;;;;6.75;41.07;101331.91;5004541;28;20522;-74
2023/03/29 00:52:38;;;;;;;5.70;2.30;;;;;;;6.77;40.82;101342.69;5001080;28;20057;-74
2023/03/29 00:55:12;;;;;;;4.45;2.22;;;;;;;6.77;41.34;101338.13;4995309;28;20729;-74
2023/03/29 00:57:45;;;;;;;5.30;2.10;;;;;;;6.75;41.18;101339.19;4999223;28;20041;-74
2023/03/29 01:00:16;;;;;;;3.90;2.17;;;;;;;6.75;41.07;101334.63;5006720;28;20132;-74
2023/03/29 01:02:49;;;;;;;3.58;2.00;;;;;;;6.74;41.34;101324.72;5022963;28;20038;-73
2023/03/29 01:05:23;;;;;;;3.72;2.03;;;;;;;6.72;41.62;101321.19;5007211;28;20045;-73
2023/03/29 01:07:57;;;;;;;3.92;2.05;;;;;;;6.73;41.80;101327.50;5006226;28;20041;-73
2023/03/29 01:10:33;;;;;;;4.45;2.30;;;;;;;6.73;41.81;101317.50;5005908;28;20504;-72
2023/03/29 01:13:06;;;;;;;4.85;2.03;;;;;;;6.71;41.19;101322.16;5005864;28;20555;-72
2023/03/29 01:15:34;;;;;;;4.47;2.28;;;;;;;6.71;41.34;101319.44;5006195;28;20046;-72
2023/03/29 01:18:02;;;;;;;4.07;2.10;;;;;;;6.70;41.03;101320.41;5006724;28;20034;-73
2023/03/29 01:20:43;;;;;;;3.60;2.10;;;;;;;6.74;41.87;101324.72;5006030;28;20125;-73
2023/03/29 01:23:26;;;;;;;2.95;1.92;;;;;;;6.74;42.29;101316.56;5006805;28;20766;-72
2023/03/29 01:25:59;;;;;;;;;;;;;;;6.48;42.23;101313.72;5007698;28;20121;-72
2023/03/29 01:28:31;;;;;;;2.95;2.00;;;;;;;6.70;41.82;101312.22;5007691;28;19960;-72
2023/03/29 01:31:06;;;;;;;5.25;2.33;;;;;;;6.70;41.82;101306.78;5009644;28;20050;-73
2023/03/29 01:33:40;;;;;;;5.13;2.30;;;;;;;6.72;41.62;101302.13;5009491;28;20497;-72
2023/03/29 01:36:14;;;;;;;4.75;2.20;;;;;;;6.73;42.01;101295.72;5008974;28;20129;-73
2023/03/29 01:38:46;;;;;;;4.20;2.05;;;;;;;6.72;41.33;101299.41;5010562;28;20145;-73
2023/03/29 01:41:14;;;;;;;4.82;2.50;;;;;;;6.69;41.40;101283.31;5010346;28;20066;-73
2023/03/29 01:43:48;;;;;;;4.55;2.35;;;;;;;6.72;41.98;101274.94;5009801;28;20045;-73
2023/03/29 01:46:24;;;;;;;4.93;2.50;;;;;;;6.71;41.74;101270.47;5000976;28;20042;-72
2023/03/29 01:48:58;;;;;;;3.80;2.10;;;;;;;6.71;41.85;101259.59;4990221;28;20077;-74
2023/03/29 01:51:30;;;;;;;4.45;2.28;;;;;;;6.71;41.73;101269.59;5000214;28;20062;-72
2023/03/29 01:54:02;;;;;;;4.28;2.13;;;;;;;6.68;41.60;101259.81;5009444;28;20049;-73
2023/03/29 01:56:35;;;;;;;4.72;2.58;;;;;;;6.71;41.80;101265.03;5009623;28;20049;-73
2023/03/29 01:59:07;;;;;;;;;;;;;;;6.45;42.54;101266.69;5011514;28;20088;-72
2023/03/29 02:01:41;;;;;;;4.13;2.20;;;;;;;6.68;41.62;101272.53;5010020;28;19921;-73
2023/03/29 02:04:11;;;;;;;;;;;;;;;6.45;42.21;101268.53;5010221;28;20393;-73
2023/03/29 02:06:41;;;;;;;5.50;2.30;;;;;;;6.66;41.57;101256.31;5025528;28;19940;-73
2023/03/29 02:09:10;;;;;;;3.88;2.10;;;;;;;6.70;41.63;101257.84;5010463;28;20061;-73
2023/03/29 02:11:40;;;;;;;4.65;2.28;;;;;;;6.71;41.17;101259.59;5009570;28;20457;-72
2023/03/29 02:14:10;;;;;;;4.28;2.05;;;;;;;6.72;41.65;101253.19;5010235;28;20092;-73
2023/03/29 02:16:39;;;;;;;4.15;2.10;;;;;;;6.72;41.46;101247.75;5010311;28;20049;-72
2023/03/29 02:19:08;;;;;;;4.32;2.10;;;;;;;6.73;41.76;101246.75;5010416;28;20083;-73
2023/03/29 02:21:45;;;;;;;4.00;1.90;;;;;;;6.75;42.00;101242.16;5008834;28;20136;-74
2023/03/29 02:24:19;;;;;;;4.25;2.30;;;;;;;6.76;42.04;101243.03;5009399;28;20133;-73
2023/03/29 02:26:48;;;;;;;;;;;;;;;6.49;42.59;101232.03;5008766;28;20049;-73
2023/03/29 02:29:17;;;;;;;2.97;1.80;;;;;;;6.72;41.68;101236.84;5009678;28;19921;-73
2023/03/29 02:31:51;;;;;;;3.97;2.10;;;;;;;6.78;42.06;101241.03;5008493;28;20303;-73
2023/03/29 02:34:25;;;;;;;3.72;2.05;;;;;;;6.79;41.32;101232.78;5010180;28;20049;-73
2023/03/29 02:36:58;;;;;;;3.83;2.03;;;;;;;6.81;41.98;101229.97;5008457;28;20505;-72
2023/03/29 02:39:28;;;;;;;3.95;2.05;;;;;;;6.82;41.32;101226.28;5008847;28;20045;-73
2023/03/29 02:41:59;;;;;;;4.63;2.33;;;;;;;6.81;41.83;101235.41;5006729;28;20057;-73
2023/03/29 02:44:31;;;;;;;5.28;2.85;;;;;;;6.84;41.70;101240.66;5008435;28;20413;-73
2023/03/29 02:47:05;;;;;;;4.15;2.10;;;;;;;6.84;41.89;101246.09;5007750;28;20058;-73
2023/03/29 02:49:34;;;;;;;4.03;2.30;;;;;;;6.85;41.63;101246.97;5008250;28;20049;-73
2023/03/29 02:52:07;;;;;;;4.80;2.72;;;;;;;6.88;41.94;101247.63;5008018;28;20046;-73
2023/03/29 02:54:42;;;;;;;4.10;2.22;;;;;;;6.89;42.02;101241.22;5010030;28;20041;-73
2023/03/29 02:57:11;;;;;;;4.57;2.38;;;;;;;6.90;41.94;101237.53;5006460;28;20084;-72
2023/03/29 02:59:42;;;;;;;3.85;2.42;;;;;;;6.93;41.74;101239.19;5008070;28;20074;-73
2023/03/29 03:02:12;;;;;;;4.10;2.15;;;;;;;6.92;41.86;101230.16;5007906;28;20142;-73
2023/03/29 03:04:42;;;;;;;3.92;2.17;;;;;;;6.95;41.66;101232.66;5007948;28;20060;-73
2023/03/29 03:07:10;;;;;;;4.47;2.40;;;;;;;6.96;42.05;101226.22;5007421;28;20081;-72
2023/03/29 03:09:38;;;;;;;4.55;2.45;;;;;;;6.96;41.68;101226.22;5008592;28;20053;-73
2023/03/29 03:12:07;;;;;;;4.93;2.47;;;;;;;7.00;41.93;101218.75;5007655;28;20136;-73
2023/03/29 03:14:35;;;;;;;4.35;2.45;;;;;;;7.01;41.94;101221.38;5008444;28;20042;-72
2023/03/29 03:17:04;;;;;;;4.07;2.35;;;;;;;7.03;41.93;101224.84;5007136;28;20565;-72
2023/03/29 03:19:33;;;;;;;4.07;2.20;;;;;;;7.04;41.59;101220.28;5008647;28;20616;-72
2023/03/29 03:22:01;;;;;;;4.32;2.25;;;;;;;7.06;41.58;101215.59;5006762;28;20524;-73
2023/03/29 03:24:29;;;;;;;3.70;2.30;;;;;;;7.07;42.05;101212.78;5007929;28;20034;-72
2023/03/29 03:26:56;;;;;;;4.75;2.45;;;;;;;7.09;41.59;101216.28;5007170;28;20046;-72
2023/03/29 03:29:25;;;;;;;4.35;2.17;;;;;;;7.11;41.95;101203.44;5009455;28;20034;-73
2023/03/29 03:32:12;;;;;;;4.30;2.45;;;;;;;7.12;42.32;101207.03;5007674;28;20061;-72
2023/03/29 03:35:19;;;;;;;3.10;2.17;;;;;;;7.12;41.83;101207.03;4986581;28;20710;-73
2023/03/29 03:37:47;;;;;;;3.60;2.05;;;;;;;7.14;42.01;101200.50;4994520;28;20042;-73
2023/03/29 03:40:17;;;;;;;4.10;2.47;;;;;;;7.15;42.12;101212.28;5005097;28;20800;-73
2023/03/29 03:42:45;;;;;;;4.68;2.50;;;;;;;7.17;42.28;101203.03;4987493;28;20098;-73
2023/03/29 03:45:14;;;;;;;4.13;2.60;;;;;;;7.19;41.75;101202.91;4987163;28;20038;-73
2023/03/29 03:47:43;;;;;;;5.15;2.60;;;;;;;7.22;42.30;101196.38;4989116;28;20544;-73
2023/03/29 03:50:37;;;;;;;4.88;2.70;;;;;;;7.22;42.18;101202.69;4988097;28;20066;-73
2023/03/29 03:53:05;;;;;;;5.35;2.83;;;;;;;7.25;42.26;101202.50;5007429;28;20042;-74
2023/03/29 03:55:55;;;;;;;4.63;2.38;;;;;;;7.25;42.43;101202.50;5000914;28;20083;-72
2023/03/29 03:58:28;;;;;;;6.03;2.72;;;;;;;7.26;41.81;101201.53;4987536;28;20042;-73
2023/03/29 04:00:56;;;;;;;4.47;2.50;;;;;;;7.28;42.08;101201.41;4994241;28;20111;-73
2023/03/29 04:03:42;;;;;;;5.13;2.63;;;;;;;7.29;41.75;101206.75;5018726;28;20191;-73
2023/03/29 04:06:14;;;;;;;4.82;2.47;;;;;;;7.29;42.13;101195.84;5017285;28;20549;-72
2023/03/29 04:09:00;;;;;;;3.78;2.42;;;;;;;7.30;42.14;101197.59;5008089;28;20049;-73
2023/03/29 04:11:35;;;;;;;4.57;2.30;;;;;;;7.32;42.13;101198.38;5006678;28;20140;-71
2023/03/29 04:14:04;;;;;;;6.07;2.42;;;;;;;7.33;41.88;101201.97;5007170;28;20084;-72
2023/03/29 04:16:58;;;;;;;4.28;2.40;;;;;;;7.32;42.26;101198.38;5019373;28;20045;-71
2023/03/29 04:19:48;;;;;;;3.45;2.15;;;;;;;7.34;42.43;101196.44;5027404;28;20049;-71
2023/03/29 04:22:16;;;;;;;3.70;2.30;;;;;;;7.35;42.01;101200.03;5007950;28;20085;-71
2023/03/29 04:24:44;;;;;;;4.50;2.30;;;;;;;7.36;42.29;101196.31;5007452;28;20041;-71
2023/03/29 04:27:31;;;;;;;5.13;2.70;;;;;;;7.35;42.50;101200.91;5026829;28;20136;-71
2023/03/29 04:30:03;;;;;;;4.82;2.53;;;;;;;7.35;42.48;101192.75;5026862;28;20045;-71
2023/03/29 04:32:51;;;;;;;3.45;2.22;;;;;;;7.34;42.87;101192.84;5026722;28;20054;-72
2023/03/29 04:35:21;;;;;;;4.10;2.60;;;;;;;7.36;42.70;101190.84;5023204;28;20047;-71
2023/03/29 04:37:49;;;;;;;3.63;2.20;;;;;;;7.34;42.63;101190.13;5006891;28;20038;-71
2023/03/29 04:40:18;;;;;;;4.57;2.42;;;;;;;7.33;43.17;101183.78;5005565;28;20108;-72
2023/03/29 04:43:02;;;;;;;4.72;2.42;;;;;;;7.32;43.39;101182.03;5006983;28;20066;-72
2023/03/29 04:45:31;;;;;;;4.50;2.70;;;;;;;7.31;43.23;101182.16;5007414;28;20091;-71
2023/03/29 04:48:19;;;;;;;4.93;2.55;;;;;;;7.29;43.18;101173.19;5014923;28;20111;-71
2023/03/29 04:50:48;;;;;;;4.22;2.60;;;;;;;7.29;43.69;101173.19;5019352;28;20041;-71
2023/03/29 04:53:18;;;;;;;4.20;2.35;;;;;;;7.27;43.34;101169.75;5006100;28;20041;-71
2023/03/29 04:55:46;;;;;;;3.90;2.53;;;;;;;7.26;43.58;101179.75;5011094;28;20041;-71
2023/03/29 04:58:21;;;;;;;4.97;2.40;;;;;;;7.24;43.46;101164.50;5026554;28;20057;-71
2023/03/29 05:00:56;;;;;;;4.72;2.92;;;;;;;7.23;43.43;101166.34;5018364;28;20267;-71
2023/03/29 05:03:37;;;;;;;5.72;2.80;;;;;;;7.19;43.53;101167.50;5003300;28;20136;-71
2023/03/29 05:06:17;;;;;;;5.13;2.58;;;;;;;7.20;43.60;101167.41;4985457;28;20671;-70
2023/03/29 05:08:45;;;;;;;5.35;2.65;;;;;;;7.19;43.73;101170.22;5001703;23;20042;-71
2023/03/29 05:11:26;;;;;;;6.82;3.10;;;;;;;7.17;43.51;101167.66;5006689;28;20096;-73
2023/03/29 05:13:57;;;;;;;6.60;3.13;;;;;;;7.16;44.02;101165.03;5012880;28;20112;-70
2023/03/29 05:16:28;;;;;;;5.65;3.28;;;;;;;7.11;44.23;101159.00;5003219;28;20136;-71
2023/03/29 05:18:58;;;;;;;5.85;3.17;;;;;;;7.12;43.61;101156.19;4987854;28;20054;-70
2023/03/29 05:21:28;;;;;;;5.05;3.15;;;;;;;7.13;44.34;101154.34;4986531;28;20054;-70
2023/03/29 05:23:58;;;;;;;5.72;2.95;;;;;;;7.10;44.00;101151.84;4986955;28;20054;-70
2023/03/29 05:26:50;;;;;;;5.28;2.58;;;;;;;7.08;43.73;101149.22;4986441;28;20053;-70
2023/03/29 05:29:18;;;;;;;4.85;2.85;;;;;;;7.09;43.92;101150.97;4987123;28;20628;-70
2023/03/29 05:31:52;;;;;;;5.15;2.60;;;;;;;7.10;44.13;101154.56;5017579;28;20132;-70
2023/03/29 05:34:21;;;;;;;6.15;3.05;;;;;;;7.09;43.88;101145.53;5006828;28;20045;-69
2023/03/29 05:36:55;;;;;;;4.85;3.03;;;;;;;7.09;44.12;101155.53;5006013;28;20073;-70
2023/03/29 05:39:24;;;;;;;5.03;2.50;;;;;;;7.08;43.82;101145.63;5023461;28;20129;-70
2023/03/29 05:41:53;;;;;;;7.22;3.45;;;;;;;7.09;43.82;101144.66;5007710;28;20077;-72
2023/03/29 05:44:24;;;;;;;5.97;3.25;;;;;;;7.08;43.96;101141.06;4990377;28;20051;-72
2023/03/29 05:46:58;;;;;;;4.13;2.80;;;;;;;7.09;43.92;101136.47;4995740;28;20073;-72
2023/03/29 05:49:26;;;;;;;5.57;3.05;;;;;;;7.07;44.49;101131.13;4986465;28;20518;-71
2023/03/29 05:52:09;;;;;;;5.63;2.90;;;;;;;7.08;44.09;101143.78;4986386;28;20093;-71
2023/03/29 05:54:38;;;;;;;4.70;3.30;;;;;;;7.08;44.16;101134.72;5003744;28;20054;-72
2023/03/29 05:57:07;;;;;;;5.22;2.90;;;;;;;7.09;44.13;101142.81;4986598;28;20054;-72
2023/03/29 05:59:35;;;;;;;5.15;3.17;;;;;;;7.09;43.82;101141.94;4987383;28;20057;-70
2023/03/29 06:02:04;;;;;;;5.43;2.80;;;;;;;7.09;44.43;101142.81;5002776;28;20054;-70
2023/03/29 06:04:35;;;;;;;5.78;2.95;;;;;;;7.09;43.98;101136.47;5023477;28;20056;-70
2023/03/29 06:07:25;;;;;;;7.03;3.53;;;;;;;7.09;44.38;101137.34;4990269;28;20057;-70
2023/03/29 06:10:23;;;;;;;4.45;2.47;;;;;;;7.08;43.94;101148.34;4992884;28;20055;-69
2023/03/29 06:12:59;;;;;;;5.35;2.58;;;;;;;7.08;43.99;101137.47;5020529;28;20049;-69
2023/03/29 06:15:27;;;;;;;5.70;2.63;;;;;;;7.10;44.21;101143.69;5018084;28;20129;-77
2023/03/29 06:18:01;;;;;;;4.65;2.40;;;;;;;7.10;43.97;101144.56;4990564;28;20595;-78
2023/03/29 06:20:29;;;;;;;5.47;3.00;;;;;;;7.12;43.92;101136.25;5006003;28;20050;-69
2023/03/29 06:23:04;;;;;;;3.75;2.50;;;;;;;7.13;44.08;101141.59;5007858;28;20509;-70
2023/03/29 06:25:34;;;;;;;4.50;2.58;;;;;;;7.14;44.38;101134.31;5008321;28;20046;-70
2023/03/29 06:28:02;;;;;;;3.90;2.30;;;;;;;7.15;44.36;101139.66;5028131;28;20038;-71
2023/03/29 06:30:30;;;;;;;4.78;2.80;;;;;;;7.16;44.27;101152.28;5007617;28;20181;-71
2023/03/29 06:32:59;;;;;;;5.40;2.80;;;;;;;7.17;44.33;101147.72;4991740;28;20132;-70
2023/03/29 06:35:54;;;;;;;4.78;2.70;;;;;;;7.18;44.07;101149.47;4998146;28;20054;-71
2023/03/29 06:38:27;;;;;;;4.67;3.00;;;;;;;7.20;43.89;101150.22;5019678;28;20052;-70
2023/03/29 06:41:05;;;;;;;4.40;2.38;;;;;;;7.23;43.86;101149.13;5020864;28;20316;-71
2023/03/29 06:43:56;;;;;;;4.53;2.50;;;;;;;7.23;43.83;101144.56;5004561;28;20057;-70
2023/03/29 06:46:31;;;;;;;5.63;2.58;;;;;;;7.24;43.73;101156.31;5008636;28;20054;-70
2023/03/29 06:49:05;;;;;;;4.85;2.70;;;;;;;7.25;43.78;101158.06;5009688;28;20076;-71
2023/03/29 06:51:47;;;;;;;4.97;2.67;;;;;;;7.25;43.79;101158.94;5008294;28;20049;-71
2023/03/29 06:54:17;;;;;;;4.35;2.70;;;;;;;7.27;44.13;101162.41;4993469;28;20034;-71
2023/03/29 06:56:58;;;;;;;4.60;2.47;;;;;;;7.28;43.95;101161.44;5002995;28;20073;-71
2023/03/29 06:59:28;;;;;;;5.53;2.95;;;;;;;7.31;44.04;101152.19;5008063;28;20072;-71
2023/03/29 07:01:58;;;;;;;4.05;2.70;;;;;;;7.32;43.80;101160.25;5021880;28;20060;-70
2023/03/29 07:04:47;;;;;;;5.57;2.70;;;;;;;7.33;43.86;101158.41;5021174;28;20053;-71
2023/03/29 07:07:32;;;;;;;4.05;2.78;;;;;;;7.35;43.66;101164.63;5007238;28;20512;-70
2023/03/29 07:10:15;;;;;;;5.55;2.53;;;;;;;7.37;44.06;101170.81;5022363;28;20042;-71
2023/03/29 07:12:45;;;;;;;4.63;2.60;;;;;;;7.39;43.61;101168.88;5010202;28;20132;-71
2023/03/29 07:15:15;;;;;;;5.05;2.63;;;;;;;7.40;43.93;101163.31;5009176;28;20045;-71
2023/03/29 07:18:18;;;;;;;4.40;2.50;;;;;;;7.39;43.75;101167.03;4958106;28;20158;-71
2023/03/29 07:20:47;;;;;;;4.88;2.60;;;;;;;7.43;43.86;101173.16;4984597;28;20259;-70
2023/03/29 07:23:15;;;;;;;5.43;2.70;;;;;;;7.45;43.64;101176.59;5015698;28;20537;-71
2023/03/29 07:25:46;;;;;;;5.47;2.67;;;;;;;7.48;43.69;101180.00;5009617;28;20046;-72
2023/03/29 07:28:14;;;;;;;5.32;2.78;;;;;;;7.46;43.76;101162.88;5029512;28;20459;-71
2023/03/29 07:30:42;;;;;;;5.68;2.83;;;;;;;7.49;43.64;101159.09;5003746;28;20046;-71
2023/03/29 07:33:15;;;;;;;4.40;2.70;;;;;;;7.50;44.03;101175.34;5006953;28;20125;-71
2023/03/29 07:35:54;;;;;;;5.95;2.70;;;;;;;7.51;43.97;101176.22;5018150;28;20061;-71
2023/03/29 07:38:22;;;;;;;5.07;2.80;;;;;;;7.53;43.76;101176.94;4999186;28;20074;-71
2023/03/29 07:41:05;;;;;;;4.93;2.67;;;;;;;7.56;43.70;101168.56;5007150;28;20045;-70
2023/03/29 07:43:45;;;;;;;;;;;;;;;7.32;44.60;101170.28;5031871;28;20052;-70
2023/03/29 07:46:15;;;;;;;4.30;2.22;;;;;;;7.54;43.64;101173.25;5033688;28;20144;-70
2023/03/29 07:48:43;;;;;;;4.00;2.42;;;;;;;7.60;43.70;101172.81;5027699;28;20442;-70
2023/03/29 07:51:15;;;;;;;4.57;2.60;;;;;;;7.64;43.69;101173.47;5026393;28;20050;-70
2023/03/29 07:53:53;;;;;;;5.82;2.58;;;;;;;7.65;43.83;101176.09;5010982;28;20034;-71
2023/03/29 07:56:43;;;;;;;5.25;2.60;;;;;;;7.69;43.85;101184.91;5014743;28;20042;-70
2023/03/29 07:59:16;;;;;;;4.93;2.63;;;;;;;7.71;44.07;101188.41;5012158;28;20334;-71
2023/03/29 08:01:49;;;;;;;4.63;2.70;;;;;;;7.72;44.13;101177.41;5011017;28;20197;-71
2023/03/29 08:04:32;;;;;;;5.35;3.10;;;;;;;7.74;44.48;101180.03;5007080;28;20160;-71
2023/03/29 08:07:17;;;;;;;5.75;2.75;;;;;;;7.77;44.21;101174.34;5006505;28;20050;-71
2023/03/29 08:10:07;;;;;;;4.63;2.40;;;;;;;7.78;44.43;101168.78;5012017;28;20061;-71
2023/03/29 08:12:55;;;;;;;5.20;2.60;;;;;;;7.79;44.41;101175.13;5015087;28;20041;-70
2023/03/29 08:15:46;;;;;;;4.53;2.55;;;;;;;7.79;44.02;101172.38;5001822;28;20350;-70
2023/03/29 08:18:40;;;;;;;5.18;2.55;;;;;;;7.80;44.19;101175.00;4984366;28;20054;-70
2023/03/29 08:21:08;;;;;;;4.15;2.33;;;;;;;7.84;44.35;101178.41;4994294;28;20100;-71
2023/03/29 08:23:36;;;;;;;4.65;2.67;;;;;;;7.85;44.27;101180.13;5015062;28;20051;-70
2023/03/29 08:26:21;;;;;;;5.30;2.92;;;;;;;7.86;44.64;101176.41;5012493;28;20445;-71
2023/03/29 08:28:51;;;;;;;4.53;2.47;;;;;;;7.90;44.34;101177.97;5030942;28;20046;-70
2023/03/29 08:31:21;;;;;;;5.82;2.72;;;;;;;7.91;44.20;101185.16;5023866;28;20046;-70
2023/03/29 08:33:49;;;;;;;4.68;2.60;;;;;;;7.94;44.71;101176.75;4992067;28;20348;-71
2023/03/29 08:36:35;;;;;;;4.22;2.47;;;;;;;7.98;44.37;101177.41;5008964;28;20420;-71
2023/03/29 08:39:11;;;;;;;4.57;2.55;;;;;;;8.01;44.29;101183.53;5012931;28;20334;-70
2023/03/29 08:41:57;;;;;;;4.40;2.70;;;;;;;8.07;45.03;101180.34;5009206;28;20085;-71
2023/03/29 08:44:43;;;;;;;4.60;2.42;;;;;;;8.12;45.19;101182.72;4992267;28;20045;-70
2023/03/29 08:47:20;;;;;;;5.22;2.47;;;;;;;8.14;44.54;101167.19;4982847;28;20126;-71
2023/03/29 08:49:53;;;;;;;4.40;2.85;;;;;;;8.18;44.76;101171.41;5001118;28;20042;-70
2023/03/29 08:52:34;;;;;;;4.80;2.90;;;;;;;8.23;45.09;101166.50;4986113;28;20288;-70
2023/03/29 08:55:26;;;;;;;5.25;2.50;;;;;;;8.26;44.92;101160.81;4984789;28;20074;-70
2023/03/29 08:58:16;;;;;;;5.55;2.90;;;;;;;8.28;44.79;101161.56;4992465;28;20069;-71
2023/03/29 09:00:50;;;;;;;4.10;2.53;;;;;;;8.33;44.35;101157.56;4997769;28;20042;-70
2023/03/29 09:03:22;;;;;;;5.05;2.78;;;;;;;8.38;44.32;101154.47;4993559;28;20482;-70
2023/03/29 09:05:58;;;;;;;5.97;2.92;;;;;;;8.42;44.25;101152.41;4991308;28;20046;-69
2023/03/29 09:08:27;;;;;;;6.90;3.80;;;;;;;8.42;44.70;101163.31;4992702;28;20050;-70
2023/03/29 09:11:11;;;;;;;5.32;2.60;;;;;;;8.50;44.38;101167.22;4988802;28;20413;-70
2023/03/29 09:13:49;;;;;;;5.80;2.80;;;;;;;8.52;44.41;101156.16;4986455;28;20050;-70
2023/03/29 09:16:28;;;;;;;4.88;2.70;;;;;;;8.55;44.65;101159.56;5000996;28;20042;-71
2023/03/29 09:19:06;;;;;;;4.72;2.83;;;;;;;8.59;44.09;101163.78;4997405;28;20421;-70
2023/03/29 09:21:45;;;;;;;4.57;2.70;;;;;;;8.62;44.43;101169.03;4985547;28;20076;-70
2023/03/29 09:24:38;;;;;;;5.20;2.22;;;;;;;8.63;44.52;101167.16;4986191;28;20513;-71
2023/03/29 09:27:20;;;;;;;5.25;2.58;;;;;;;8.65;44.03;101160.63;5011907;28;20147;-70
2023/03/29 09:30:16;;;;;;;6.00;2.58;;;;;;;8.67;44.22;101161.34;5013919;28;20442;-71
2023/03/29 09:33:00;;;;;;;3.95;2.42;;;;;;;8.71;43.96;101157.41;5028594;28;20108;-71
2023/03/29 09:35:44;;;;;;;4.82;2.55;;;;;;;8.74;44.52;101159.06;5028878;28;20615;-71
2023/03/29 09:38:16;;;;;;;5.05;2.65;;;;;;;8.79;43.97;101161.44;5012785;28;20042;-70
2023/03/29 09:40:47;;;;;;;5.72;3.00;;;;;;;8.83;44.09;101160.22;5007654;28;20045;-70
2023/03/29 09:43:30;;;;;;;5.65;3.00;;;;;;;8.87;44.25;101154.41;5029273;28;20164;-71
2023/03/29 09:46:04;;;;;;;5.70;2.75;;;;;;;8.91;44.17;101160.50;5015558;28;20562;-70
2023/03/29 09:48:39;;;;;;;5.05;2.72;;;;;;;8.94;44.58;101150.22;5018850;28;20053;-70
2023/03/29 09:51:08;;;;;;;6.45;2.90;;;;;;;8.99;43.98;101148.03;5019967;28;20050;-70
2023/03/29 09:53:38;;;;;;;4.25;2.70;;;;;;;9.04;44.61;101151.25;5037663;28;20053;-71
2023/03/29 09:56:29;;;;;;;5.05;2.65;;;;;;;9.08;44.16;101150.03;5019469;28;20431;-70
2023/03/29 09:59:19;;;;;;;6.68;2.90;;;;;;;9.13;44.04;101149.69;5020590;28;20042;-70
2023/03/29 10:01:47;;;;;;;5.97;3.05;;;;;;;9.20;44.55;101148.22;5021365;28;20306;-71
2023/03/29 10:04:17;;;;;;;5.20;3.35;;;;;;;9.28;44.59;101155.81;5024675;28;20140;-71
2023/03/29 10:06:52;;;;;;;5.90;3.03;;;;;;;9.32;44.04;101152.75;5010879;28;20076;-70
2023/03/29 10:09:24;;;;;;;6.53;3.17;;;;;;;9.38;44.10;101143.19;5010775;28;20049;-70
2023/03/29 10:12:02;;;;;;;7.20;2.85;;;;;;;9.43;43.94;101132.78;5013969;28;20136;-70
2023/03/29 10:14:35;;;;;;;6.10;3.13;;;;;;;9.49;43.94;101131.47;4994224;28;20050;-70
2023/03/29 10:17:11;;;;;;;6.25;3.20;;;;;;;9.52;44.38;101129.34;4993517;28;20116;-70
2023/03/29 10:19:48;;;;;;;4.40;2.75;;;;;;;9.59;43.77;101136.06;4999383;28;20050;-70
2023/03/29 10:22:20;;;;;;;5.28;2.95;;;;;;;9.63;43.80;101137.56;5006113;28;20077;-70
2023/03/29 10:24:51;;;;;;;5.47;3.07;;;;;;;9.66;44.47;101131.00;4996369;28;20042;-71
2023/03/29 10:27:22;;;;;;;4.53;3.08;;;;;;;9.73;44.13;101122.19;5002000;28;20038;-70
2023/03/29 10:29:51;;;;;;;4.93;3.05;;;;;;;9.78;44.07;101119.06;5001401;28;20034;-71
2023/03/29 10:32:28;;;;;;;6.10;3.10;;;;;;;9.84;44.10;101124.91;5000506;28;20061;-72
2023/03/29 10:35:02;;;;;;;5.57;3.10;;;;;;;9.89;44.47;101118.22;4990461;28;20046;-70
2023/03/29 10:37:31;;;;;;;6.55;3.13;;;;;;;9.91;44.06;101097.94;5009266;28;20064;-73
2023/03/29 10:39:59;;;;;;;5.55;3.08;;;;;;;9.97;44.28;101105.66;5011613;28;20042;-73
2023/03/29 10:42:28;;;;;;;5.50;3.33;;;;;;;10.04;44.18;101112.38;5013726;28;20517;-70
2023/03/29 10:44:58;;;;;;;6.82;3.58;;;;;;;10.08;43.95;101119.31;5016182;28;20046;-71
2023/03/29 10:47:33;;;;;;;5.50;3.13;;;;;;;10.15;43.90;101111.50;5016758;28;20058;-70
2023/03/29 10:50:06;;;;;;;5.38;2.97;;;;;;;10.19;43.84;101111.13;5018315;28;20076;-70
2023/03/29 10:52:35;;;;;;;4.75;2.90;;;;;;;10.22;44.23;101110.88;5023174;28;20037;-71
2023/03/29 10:55:02;;;;;;;4.20;2.88;;;;;;;10.30;44.61;101109.38;5020300;28;20056;-72
2023/03/29 10:57:37;;;;;;;5.05;3.00;;;;;;;10.39;44.11;101117.69;5013731;28;20049;-71
2023/03/29 11:00:17;;;;;;;5.78;2.92;;;;;;;10.48;44.52;101111.44;5018754;28;20058;-72
2023/03/29 11:03:07;;;;;;;4.35;2.90;;;;;;;10.57;45.07;101097.00;5023047;28;20046;-71
2023/03/29 11:05:42;;;;;;;5.32;2.97;;;;;;;10.70;44.71;101109.69;5015734;28;20132;-72
2023/03/29 11:08:27;;;;;;;4.95;2.80;;;;;;;10.83;44.79;101093.94;5019900;28;20304;-71
2023/03/29 11:11:10;;;;;;;4.72;2.78;;;;;;;10.96;44.71;101094.66;5014385;28;20145;-72
2023/03/29 11:13:48;;;;;;;5.60;2.60;;;;;;;11.12;44.77;101096.94;5008237;28;20068;-71
2023/03/29 11:16:27;;;;;;;4.70;2.63;;;;;;;11.25;44.41;101087.53;5015404;28;20528;-71
2023/03/29 11:19:15;;;;;;;4.85;2.58;;;;;;;11.40;44.13;101100.88;5017230;28;20091;-71
2023/03/29 11:21:53;;;;;;;4.03;2.63;;;;;;;11.53;43.95;101099.69;5006272;28;20054;-72
2023/03/29 11:24:38;;;;;;;4.78;2.42;;;;;;;11.69;43.62;101100.09;5019023;28;20049;-71
2023/03/29 11:27:19;;;;;;;4.82;2.60;;;;;;;11.81;43.56;101089.91;5005028;28;20131;-71
2023/03/29 11:30:01;;;;;;;4.50;2.40;;;;;;;11.94;43.39;101093.31;4993128;28;20501;-70
2023/03/29 11:32:36;;;;;;;4.10;2.30;;;;;;;12.01;43.28;101091.75;5004958;28;20120;-70
2023/03/29 11:35:18;;;;;;;4.75;2.70;;;;;;;12.13;42.93;101090.63;5014027;28;20045;-70
2023/03/29 11:37:55;;;;;;;6.10;3.50;;;;;;;12.23;42.54;101087.03;5032116;28;20128;-70
2023/03/29 11:40:40;;;;;;;4.45;2.40;;;;;;;12.29;42.19;101079.13;5008548;28;20124;-70
2023/03/29 11:43:14;;;;;;;3.63;2.35;;;;;;;12.33;42.64;101074.22;5015605;28;20066;-70
2023/03/29 11:45:46;;;;;;;4.20;2.42;;;;;;;12.38;42.52;101067.28;5014099;28;20100;-70
2023/03/29 11:48:21;;;;;;;4.75;2.30;;;;;;;12.40;42.68;101069.91;5018907;28;20093;-72
2023/03/29 11:50:53;;;;;;;4.03;2.33;;;;;;;12.44;42.52;101066.75;5026262;28;20152;-72
2023/03/29 11:53:26;;;;;;;4.47;2.25;;;;;;;12.47;42.54;101054.59;5016995;28;20040;-71
2023/03/29 11:55:58;;;;;;;4.50;2.50;;;;;;;12.49;42.54;101052.59;5014424;28;20045;-71
2023/03/29 11:58:32;;;;;;;5.32;2.70;;;;;;;12.53;41.77;101053.19;5015975;28;20093;-71
2023/03/29 12:01:08;;;;;;;4.07;2.10;;;;;;;12.54;42.46;101054.91;5011769;28;20049;-71
2023/03/29 12:03:42;;;;;;;5.40;2.03;;;;;;;12.56;42.46;101051.00;5015357;28;20079;-72
2023/03/29 12:08:47;;;;;;;4.18;2.50;;;;;;;12.61;41.95;101056.09;4967126;28;20478;-73
2023/03/29 12:11:23;;;;;;;4.15;2.40;;;;;;;12.62;41.93;101047.75;4970124;28;20055;-73